Time;durP1;ratioP1;P1;durP2;ratioP2;P2;SDS_P1;SDS_P2;PMS_P1;PMS_P2;Temp;Humidity;BMP_temperature;BMP_pressure;BME280_temperature;BME280_humidity;BME280_pressure;Samples;Min_cycle;Max_cycle;Signal;HPM_P1;HPM_P2
2022/09/24 00:22:56;;;;;;;1.23;1.23;;;;;;;14.31;43.45;94787.72;2621306;54;20604;-76
2022/09/24 00:28:05;;;;;;;0.97;0.80;;;;;;;12.57;47.13;94790.72;2621548;54;20179;-76
2022/09/24 00:30:34;;;;;;;1.83;1.10;;;;;;;11.76;48.91;94782.72;2621123;46;20717;-77
2022/09/24 00:33:02;;;;;;;1.10;1.10;;;;;;;11.49;50.23;94777.63;2621699;47;20248;-76
2022/09/24 00:35:33;;;;;;;0.87;0.87;;;;;;;11.27;51.50;94792.56;2621276;54;20164;-76
2022/09/24 00:38:04;;;;;;;1.30;1.30;;;;;;;11.45;50.74;94786.75;2621455;47;20172;-76
2022/09/24 00:40:35;;;;;;;1.47;1.20;;;;;;;11.36;52.54;94791.41;2620669;47;20184;-75
2022/09/24 00:43:04;;;;;;;0.90;0.90;;;;;;;11.38;51.22;94797.16;2620908;46;20255;-77
2022/09/24 00:45:33;;;;;;;1.57;1.57;;;;;;;11.14;51.59;94778.66;2620977;46;20790;-76
2022/09/24 00:48:01;;;;;;;2.03;1.27;;;;;;;10.99;52.05;94783.13;2621779;46;20168;-77
2022/09/24 00:50:34;;;;;;;2.73;1.47;;;;;;;11.31;51.13;94789.88;2621765;38;20622;-77
2022/09/24 00:53:11;;;;;;;1.43;1.13;;;;;;;12.66;48.46;94772.50;2621087;47;20283;-78
2022/09/24 00:55:42;;;;;;;1.60;1.30;;;;;;;11.55;49.90;94783.50;2621274;54;20470;-77
2022/09/24 00:58:13;;;;;;;1.93;1.83;;;;;;;11.26;51.28;94779.78;2620718;54;20413;-77
2022/09/24 01:00:44;;;;;;;0.77;0.77;;;;;;;10.95;52.54;94780.91;2621675;46;20164;-77
2022/09/24 01:03:16;;;;;;;0.93;0.93;;;;;;;11.27;51.42;94769.16;2622557;47;20172;-78
2022/09/24 01:05:45;;;;;;;2.30;2.07;;;;;;;11.19;51.16;94761.13;2621613;54;20159;-76
2022/09/24 01:08:19;;;;;;;8.43;2.40;;;;;;;12.15;50.03;94778.19;2615785;54;20173;-76
2022/09/24 01:11:06;;;;;;;0.90;0.90;;;;;;;12.21;49.32;94776.22;2615467;54;20160;-76
2022/09/24 01:14:02;;;;;;;3.13;2.10;;;;;;;12.22;48.47;94776.97;2615689;54;21127;-76
2022/09/24 01:16:39;;;;;;;1.23;1.23;;;;;;;11.52;48.51;94777.03;2614523;54;20172;-77
2022/09/24 01:19:20;;;;;;;2.03;1.43;;;;;;;10.71;51.12;94770.88;2615841;54;20247;-77
2022/09/24 01:21:54;;;;;;;0.97;0.97;;;;;;;10.50;52.50;94780.78;2615797;54;20188;-75
2022/09/24 01:24:43;;;;;;;0.93;0.93;;;;;;;12.55;51.69;94770.06;2615695;47;20248;-76
2022/09/24 01:27:18;;;;;;;0.90;0.90;;;;;;;12.56;47.78;94774.34;2615799;54;20199;-76
2022/09/24 01:29:54;;;;;;;0.77;0.70;;;;;;;13.20;49.32;94783.81;2618235;54;20168;-76
2022/09/24 01:32:30;;;;;;;3.60;2.23;;;;;;;13.80;46.42;94769.56;2617624;54;20295;-77
2022/09/24 01:35:03;;;;;;;0.70;0.70;;;;;;;13.21;46.50;94758.94;2618266;54;20183;-75
2022/09/24 01:37:35;;;;;;;1.03;1.03;;;;;;;12.57;46.33;94770.13;2618710;49;20188;-76
2022/09/24 01:40:06;;;;;;;0.50;0.50;;;;;;;12.60;47.82;94754.53;2618331;54;20197;-77
2022/09/24 01:42:35;;;;;;;1.30;1.17;;;;;;;13.36;47.89;94752.94;2618423;47;20241;-76
2022/09/24 01:45:08;;;;;;;0.57;0.57;;;;;;;13.70;46.24;94724.50;2617988;54;20640;-75
2022/09/24 01:47:39;;;;;;;1.43;1.43;;;;;;;14.70;44.27;94761.41;2618074;47;20149;-78
2022/09/24 01:50:24;;;;;;;0.80;0.80;;;;;;;13.30;43.58;94752.78;2618112;46;20725;-77
2022/09/24 01:52:58;;;;;;;1.17;0.80;;;;;;;13.48;47.08;94758.91;2618286;46;20153;-76
2022/09/24 01:55:30;;;;;;;1.03;0.90;;;;;;;13.76;43.65;94760.94;2617818;54;20141;-77
2022/09/24 01:58:04;;;;;;;2.00;1.33;;;;;;;12.99;45.04;94764.78;2618236;54;20172;-79
2022/09/24 02:00:36;;;;;;;1.03;1.00;;;;;;;11.70;46.86;94771.19;2619121;39;20567;-77
2022/09/24 02:03:10;;;;;;;0.70;0.70;;;;;;;12.17;46.76;94775.38;2618056;54;20157;-76
2022/09/24 02:05:44;;;;;;;0.87;0.87;;;;;;;12.89;47.89;94785.16;2618129;54;20176;-77
2022/09/24 02:08:18;;;;;;;0.97;0.97;;;;;;;12.21;47.17;94789.69;2618146;48;20203;-76
2022/09/24 02:10:53;;;;;;;1.13;1.10;;;;;;;13.25;46.27;94799.59;2618110;54;20167;-76
2022/09/24 02:13:26;;;;;;;0.80;0.80;;;;;;;13.40;44.03;94794.94;2617908;47;20311;-76
2022/09/24 02:16:01;;;;;;;3.50;1.33;;;;;;;12.61;46.48;94793.66;2617581;54;20153;-75
2022/09/24 02:18:35;;;;;;;0.93;0.93;;;;;;;13.74;47.19;94781.53;2617179;47;20247;-76
2022/09/24 02:21:08;;;;;;;1.33;1.33;;;;;;;13.72;43.52;94801.41;2617802;47;20911;-77
2022/09/24 02:23:40;;;;;;;0.80;0.80;;;;;;;13.73;43.91;94799.28;2617900;54;20193;-76
2022/09/24 02:26:09;;;;;;;1.20;1.20;;;;;;;13.36;43.98;94803.41;2617943;47;20192;-77
2022/09/24 02:28:39;;;;;;;1.10;1.10;;;;;;;13.08;44.76;94809.09;2617371;47;20215;-76
2022/09/24 02:31:14;;;;;;;1.30;1.00;;;;;;;12.30;46.80;94794.22;2617642;54;20156;-76
2022/09/24 02:36:28;;;;;;;1.37;1.27;;;;;;;10.83;50.33;94810.94;2617459;47;20156;-75
2022/09/24 02:38:56;;;;;;;0.80;0.80;;;;;;;11.79;50.10;94812.63;2617415;54;20204;-76
2022/09/24 02:41:26;;;;;;;0.90;0.80;;;;;;;11.72;49.12;94805.28;2617593;47;20715;-77
2022/09/24 02:43:55;;;;;;;0.70;0.70;;;;;;;12.26;49.91;94811.88;2617797;47;20668;-76
2022/09/24 02:46:26;;;;;;;1.03;0.93;;;;;;;12.29;47.56;94812.66;2618320;39;20537;-76
2022/09/24 02:48:55;;;;;;;0.80;0.80;;;;;;;12.55;48.21;94815.50;2617274;47;20164;-76
2022/09/24 02:51:24;;;;;;;1.00;1.00;;;;;;;12.72;47.22;94826.63;2617971;47;20164;-77
2022/09/24 02:53:53;;;;;;;1.03;1.03;;;;;;;13.24;47.81;94820.91;2617626;54;20257;-76
2022/09/24 02:56:21;;;;;;;1.17;1.17;;;;;;;13.26;45.57;94829.47;2617712;47;20168;-76
2022/09/24 02:58:50;;;;;;;0.53;0.53;;;;;;;12.59;46.06;94826.97;2617550;54;20195;-76
2022/09/24 03:01:18;;;;;;;0.87;0.87;;;;;;;12.05;47.98;94835.38;2617725;39;20671;-76
2022/09/24 03:03:50;;;;;;;0.77;0.77;;;;;;;13.63;46.05;94830.38;2617279;47;20271;-75
2022/09/24 03:06:18;;;;;;;1.83;1.73;;;;;;;13.05;44.95;94794.09;2617572;47;20161;-75
2022/09/24 03:08:47;;;;;;;1.20;1.20;;;;;;;12.59;46.20;94835.50;2617544;54;20153;-77
2022/09/24 03:11:16;;;;;;;1.17;1.17;;;;;;;13.78;46.76;94835.00;2617275;54;20284;-77
2022/09/24 03:13:45;;;;;;;0.60;0.60;;;;;;;12.74;44.41;94812.47;2618409;31;20646;-76
2022/09/24 03:16:13;;;;;;;1.50;1.13;;;;;;;12.48;45.11;94823.13;2617553;47;20815;-76
2022/09/24 03:18:42;;;;;;;0.50;0.50;;;;;;;10.93;48.59;94799.97;2617433;54;20162;-77
2022/09/24 03:21:16;;;;;;;1.37;0.83;;;;;;;10.54;50.52;94829.78;2617121;46;20280;-77
2022/09/24 03:23:45;;;;;;;0.80;0.80;;;;;;;10.77;50.68;94808.63;2618411;31;20652;-76
2022/09/24 03:26:14;;;;;;;1.43;1.33;;;;;;;11.77;48.22;94823.91;2617336;54;20263;-76
2022/09/24 03:28:42;;;;;;;2.43;0.97;;;;;;;12.84;48.28;94805.63;2617443;47;20243;-76
2022/09/24 03:31:09;;;;;;;1.03;1.03;;;;;;;12.32;46.07;94839.72;2617592;54;20267;-77
2022/09/24 03:33:40;;;;;;;1.83;0.93;;;;;;;11.72;46.83;94813.81;2617669;47;20176;-76
2022/09/24 03:36:14;;;;;;;1.27;1.27;;;;;;;13.03;48.38;94841.66;2617448;54;20188;-76
2022/09/24 03:38:44;;;;;;;1.10;1.10;;;;;;;12.46;45.02;94840.13;2617380;47;20715;-76
2022/09/24 03:41:14;;;;;;;1.20;1.10;;;;;;;12.28;48.39;94848.13;2617420;54;20152;-77
2022/09/24 03:43:43;;;;;;;0.80;0.80;;;;;;;12.34;46.05;94845.44;2616956;54;20164;-76
2022/09/24 03:46:14;;;;;;;1.57;1.00;;;;;;;12.79;48.14;94856.66;2617574;39;20584;-77
2022/09/24 03:48:45;;;;;;;1.20;1.20;;;;;;;12.80;45.26;94849.59;2617123;54;20275;-76
2022/09/24 03:51:20;;;;;;;1.00;1.00;;;;;;;13.80;45.78;94849.97;2617539;47;20152;-76
2022/09/24 03:53:49;;;;;;;2.00;1.37;;;;;;;12.48;44.04;94840.16;2617266;54;20243;-76
2022/09/24 03:56:18;;;;;;;1.60;1.50;;;;;;;12.61;44.05;94850.47;2617808;54;20255;-75
2022/09/24 03:58:46;;;;;;;2.43;0.97;;;;;;;13.63;45.73;94856.69;2617904;39;20311;-76
2022/09/24 04:01:20;;;;;;;1.67;1.53;;;;;;;13.96;42.46;94835.38;2617263;54;20252;-76
2022/09/24 04:03:48;;;;;;;0.90;0.90;;;;;;;13.01;45.24;94852.97;2617154;47;20177;-76
2022/09/24 04:06:20;;;;;;;1.43;1.40;;;;;;;12.96;46.91;94860.69;2617401;47;20160;-77
2022/09/24 04:08:48;;;;;;;1.00;1.00;;;;;;;13.83;45.22;94860.00;2617350;54;20169;-77
2022/09/24 04:11:17;;;;;;;0.97;0.97;;;;;;;13.88;42.66;94852.28;2617200;54;20256;-76
2022/09/24 04:13:46;;;;;;;0.90;0.90;;;;;;;11.67;45.68;94846.28;2617089;54;20149;-76
2022/09/24 04:16:15;;;;;;;2.20;2.10;;;;;;;12.44;46.31;94854.25;2617302;54;20248;-78
2022/09/24 04:18:43;;;;;;;1.57;1.47;;;;;;;10.89;48.47;94857.22;2617265;51;20216;-76
2022/09/24 04:21:12;;;;;;;0.80;0.80;;;;;;;11.13;49.27;94860.13;2617237;47;20288;-77
2022/09/24 04:23:43;;;;;;;1.23;1.23;;;;;;;11.69;50.73;94854.84;2617155;47;20271;-76
2022/09/24 04:26:12;;;;;;;0.90;0.90;;;;;;;13.18;47.14;94854.13;2617192;54;20153;-76
2022/09/24 04:28:40;;;;;;;1.33;1.30;;;;;;;10.27;49.52;94872.69;2616966;54;20269;-77
2022/09/24 04:31:09;;;;;;;1.00;1.00;;;;;;;12.48;49.06;94885.63;2617128;47;20165;-77
2022/09/24 04:33:37;;;;;;;0.90;0.90;;;;;;;12.44;45.23;94879.81;2617577;54;20236;-76
2022/09/24 04:36:06;;;;;;;0.80;0.80;;;;;;;13.40;46.46;94886.72;2617560;54;20172;-76
2022/09/24 04:38:35;;;;;;;0.80;0.80;;;;;;;13.06;45.19;94875.16;2617207;54;20240;-76
2022/09/24 04:41:11;;;;;;;1.63;1.57;;;;;;;13.00;45.96;94882.78;2617453;47;20241;-76
2022/09/24 04:43:40;;;;;;;0.93;0.93;;;;;;;12.66;48.07;94877.63;2618106;47;20185;-76
2022/09/24 04:46:09;;;;;;;2.00;1.47;;;;;;;13.30;45.96;94869.41;2617963;48;20197;-76
2022/09/24 04:48:38;;;;;;;0.53;0.53;;;;;;;12.92;47.11;94880.47;2617363;54;20168;-76
2022/09/24 04:51:08;;;;;;;0.57;0.57;;;;;;;13.07;45.82;94867.34;2618162;39;20883;-77
2022/09/24 04:53:38;;;;;;;0.80;0.80;;;;;;;12.19;47.46;94861.34;2617747;54;20212;-76
2022/09/24 04:56:10;;;;;;;0.93;0.93;;;;;;;13.79;45.83;94877.00;2617915;54;20146;-76
2022/09/24 04:58:40;;;;;;;1.20;1.20;;;;;;;13.03;46.94;94878.59;2617505;47;20157;-76
2022/09/24 05:01:08;;;;;;;1.17;1.17;;;;;;;11.93;49.17;94875.47;2617872;54;21025;-76
2022/09/24 05:03:38;;;;;;;1.20;1.20;;;;;;;11.50;51.12;94884.75;2618060;54;20276;-79
2022/09/24 05:06:07;;;;;;;1.27;1.17;;;;;;;11.43;52.10;94876.69;2618508;39;20579;-77
2022/09/24 05:08:36;;;;;;;1.65;1.58;;;;;;;11.67;51.78;94864.03;2618071;54;20491;-76
2022/09/24 05:11:04;;;;;;;0.87;0.87;;;;;;;11.61;53.22;94888.66;2617520;47;20746;-77
2022/09/24 05:13:36;;;;;;;1.27;1.17;;;;;;;12.96;48.41;94888.38;2617649;49;20212;-75
2022/09/24 05:16:05;;;;;;;1.30;1.30;;;;;;;12.77;49.58;94885.03;2617793;54;20676;-76
2022/09/24 05:18:35;;;;;;;1.10;1.00;;;;;;;12.10;51.46;94879.53;2617792;47;20160;-76
2022/09/24 05:21:03;;;;;;;1.07;1.07;;;;;;;11.98;53.20;94887.69;2617665;49;20257;-76
2022/09/24 05:23:32;;;;;;;1.10;1.10;;;;;;;11.67;53.68;94880.31;2617551;47;20149;-76
2022/09/24 05:28:44;;;;;;;1.30;1.30;;;;;;;11.51;53.14;94882.63;2617152;47;20216;-76
2022/09/24 05:31:13;;;;;;;2.00;1.03;;;;;;;10.99;55.63;94879.50;2617741;47;20284;-76
2022/09/24 05:33:41;;;;;;;1.57;1.20;;;;;;;11.21;54.26;94851.88;2617540;54;20153;-75
2022/09/24 05:36:10;;;;;;;1.80;1.70;;;;;;;12.20;52.20;94891.19;2617979;39;20291;-76
2022/09/24 05:38:38;;;;;;;1.43;0.93;;;;;;;12.58;50.77;94896.53;2617428;54;20304;-75
2022/09/24 05:41:07;;;;;;;16.70;1.77;;;;;;;13.75;47.34;94890.41;2619912;54;20300;-76
2022/09/24 05:43:36;;;;;;;1.13;1.13;;;;;;;14.54;45.26;94892.94;2620776;54;20160;-75
2022/09/24 05:46:08;;;;;;;1.47;1.43;;;;;;;15.25;43.72;94896.47;2618477;47;20176;-75
2022/09/24 05:48:37;;;;;;;4.30;2.07;;;;;;;15.41;43.54;94905.34;2617213;54;20157;-76
2022/09/24 05:51:06;;;;;;;3.37;1.60;;;;;;;15.88;41.85;94911.84;2618038;39;20625;-77
2022/09/24 05:53:35;;;;;;;1.30;1.20;;;;;;;15.07;43.90;94907.53;2617686;54;20156;-76
2022/09/24 05:56:05;;;;;;;1.33;1.23;;;;;;;15.11;44.02;94908.34;2618199;47;20149;-75
2022/09/24 05:58:33;;;;;;;2.53;2.33;;;;;;;15.12;44.29;94906.22;2618210;54;20169;-75
2022/09/24 06:01:02;;;;;;;2.97;1.90;;;;;;;14.98;44.89;94914.50;2617867;54;20179;-79
2022/09/24 06:03:33;;;;;;;2.03;1.83;;;;;;;15.74;42.19;94914.47;2618486;54;20145;-80
2022/09/24 06:06:02;;;;;;;1.13;1.03;;;;;;;14.80;44.58;94894.88;2618012;54;20192;-76
2022/09/24 06:08:32;;;;;;;2.30;1.50;;;;;;;15.22;43.77;94912.81;2617978;46;20187;-76
2022/09/24 06:11:01;;;;;;;1.53;1.43;;;;;;;15.35;43.75;94913.03;2617221;47;20240;-76
2022/09/24 06:13:31;;;;;;;1.80;1.70;;;;;;;16.15;41.82;94904.41;2617560;54;20172;-76
2022/09/24 06:16:02;;;;;;;1.93;1.83;;;;;;;16.18;41.63;94918.03;2617279;47;20221;-76
2022/09/24 06:18:35;;;;;;;1.23;1.20;;;;;;;16.48;41.25;94917.03;2617942;46;20292;-76
2022/09/24 06:21:06;;;;;;;1.17;1.17;;;;;;;16.55;40.68;94918.56;2617730;39;20558;-75
2022/09/24 06:23:35;;;;;;;1.23;1.10;;;;;;;17.09;40.05;94912.84;2617909;39;20554;-75
2022/09/24 06:26:06;;;;;;;1.67;1.40;;;;;;;16.45;41.08;94924.16;2617198;54;20161;-76
2022/09/24 06:28:35;;;;;;;1.83;1.40;;;;;;;16.83;40.10;94918.97;2617364;47;20923;-77
2022/09/24 06:31:04;;;;;;;1.40;1.40;;;;;;;17.20;39.44;94922.28;2617972;54;20285;-76
2022/09/24 06:33:36;;;;;;;2.35;1.83;;;;;;;17.19;39.53;94921.56;2616995;54;20408;-76
2022/09/24 06:36:06;;;;;;;1.90;1.80;;;;;;;17.54;38.87;94919.78;2618218;47;20165;-75
2022/09/24 06:38:35;;;;;;;1.47;1.37;;;;;;;17.19;39.82;94929.44;2617894;54;20280;-75
2022/09/24 06:41:06;;;;;;;1.73;1.70;;;;;;;16.62;40.27;94931.53;2617599;47;20236;-75
2022/09/24 06:43:35;;;;;;;1.00;1.00;;;;;;;15.31;43.12;94907.97;2617148;54;20687;-75
2022/09/24 06:46:05;;;;;;;1.37;1.27;;;;;;;15.75;43.00;94930.19;2617529;48;20280;-75
2022/09/24 06:48:37;;;;;;;1.50;1.37;;;;;;;16.59;40.93;94933.66;2617726;54;20173;-76
2022/09/24 06:51:07;;;;;;;1.47;1.33;;;;;;;16.87;40.53;94921.88;2617556;54;20189;-76
2022/09/24 06:53:35;;;;;;;1.80;1.70;;;;;;;16.50;39.79;94920.66;2617173;54;20156;-77
2022/09/24 06:56:05;;;;;;;1.00;1.00;;;;;;;15.94;40.81;94932.69;2617456;54;20319;-77
2022/09/24 06:58:33;;;;;;;1.00;1.00;;;;;;;16.01;41.38;94936.34;2617361;47;20200;-75
2022/09/24 07:01:03;;;;;;;1.43;1.33;;;;;;;15.27;42.73;94930.75;2617135;47;20264;-76
2022/09/24 07:03:37;;;;;;;1.77;1.67;;;;;;;15.19;42.72;94933.44;2617306;54;20674;-76
2022/09/24 07:06:08;;;;;;;1.73;1.63;;;;;;;15.97;42.36;94939.16;2617195;39;20662;-75
2022/09/24 07:08:36;;;;;;;1.47;1.47;;;;;;;16.77;40.62;94930.34;2617377;47;20277;-77
2022/09/24 07:11:05;;;;;;;2.33;2.13;;;;;;;16.84;40.03;94934.00;2617078;54;20145;-75
2022/09/24 07:13:33;;;;;;;1.57;1.53;;;;;;;14.68;43.09;94935.28;2617022;47;20257;-75
2022/09/24 07:16:03;;;;;;;2.03;1.93;;;;;;;13.90;45.25;94937.03;2617061;47;20195;-77
2022/09/24 07:18:31;;;;;;;1.70;1.60;;;;;;;15.11;42.70;94930.44;2617253;54;20165;-75
2022/09/24 07:21:03;;;;;;;1.33;1.33;;;;;;;15.90;42.69;94924.03;2617101;54;20276;-75
2022/09/24 07:23:31;;;;;;;1.67;1.57;;;;;;;14.17;44.17;94902.06;2617310;54;20273;-77
2022/09/24 07:26:00;;;;;;;1.57;1.47;;;;;;;14.39;44.32;94922.50;2617251;54;20149;-76
2022/09/24 07:28:29;;;;;;;1.20;1.20;;;;;;;14.58;43.83;94917.97;2616811;52;20256;-76
2022/09/24 07:31:01;;;;;;;1.80;1.70;;;;;;;13.90;44.87;94926.38;2617921;39;20675;-76
2022/09/24 07:33:32;;;;;;;1.20;1.10;;;;;;;14.51;43.72;94910.66;2616796;47;20152;-76
2022/09/24 07:36:06;;;;;;;1.33;1.20;;;;;;;15.37;43.87;94918.78;2617255;54;20263;-75
2022/09/24 07:38:35;;;;;;;1.43;1.43;;;;;;;15.09;43.16;94894.03;2616953;54;20172;-77
2022/09/24 07:41:06;;;;;;;1.13;1.13;;;;;;;15.42;41.83;94911.75;2617303;47;20161;-76
2022/09/24 07:43:35;;;;;;;1.17;1.17;;;;;;;14.16;45.66;94915.59;2616766;47;20157;-77
2022/09/24 07:46:04;;;;;;;0.97;0.97;;;;;;;15.03;43.00;94913.19;2617091;54;20256;-76
2022/09/24 07:48:33;;;;;;;1.67;1.30;;;;;;;13.94;44.83;94915.06;2617148;54;20164;-75
2022/09/24 07:51:04;;;;;;;1.43;1.30;;;;;;;15.01;42.96;94913.13;2617070;54;20244;-76
2022/09/24 07:53:32;;;;;;;1.10;1.10;;;;;;;14.79;42.19;94867.78;2617273;47;20747;-77
2022/09/24 07:56:01;;;;;;;2.03;1.37;;;;;;;15.12;42.64;94920.47;2617344;54;20683;-75
2022/09/24 07:58:30;;;;;;;1.30;1.30;;;;;;;16.18;40.73;94914.47;2617300;54;20699;-76
2022/09/24 08:01:00;;;;;;;1.20;1.20;;;;;;;15.91;41.96;94916.19;2617149;49;20189;-76
2022/09/24 08:03:30;;;;;;;2.87;1.37;;;;;;;16.96;39.13;94917.69;2617116;54;20164;-77
2022/09/24 08:06:00;;;;;;;1.20;1.10;;;;;;;16.76;39.03;94911.75;2617003;54;20160;-76
2022/09/24 08:08:31;;;;;;;2.10;1.90;;;;;;;16.53;39.73;94913.56;2618135;47;20191;-76
2022/09/24 08:11:05;;;;;;;1.20;1.10;;;;;;;16.70;39.18;94908.78;2619515;39;20702;-77
2022/09/24 08:13:33;;;;;;;1.00;1.00;;;;;;;16.68;38.84;94915.19;2619745;54;20273;-75
2022/09/24 08:16:04;;;;;;;1.70;1.60;;;;;;;17.31;38.72;94898.78;2619022;54;20221;-76
2022/09/24 08:18:34;;;;;;;1.27;1.00;;;;;;;17.30;37.14;94905.94;2618531;54;20160;-76
2022/09/24 08:21:07;;;;;;;0.93;0.93;;;;;;;16.61;38.92;94918.66;2619938;54;20177;-75
2022/09/24 08:23:38;;;;;;;2.67;1.33;;;;;;;15.66;40.27;94909.34;2618213;54;20180;-76
2022/09/24 08:26:07;;;;;;;2.80;1.33;;;;;;;15.75;40.49;94916.63;2618214;54;20160;-76
2022/09/24 08:28:36;;;;;;;0.70;0.70;;;;;;;16.93;39.75;94895.50;2617409;54;20263;-76
2022/09/24 08:31:08;;;;;;;1.20;1.20;;;;;;;17.27;37.54;94906.59;2617848;47;20295;-75
2022/09/24 08:33:38;;;;;;;2.03;1.93;;;;;;;17.54;38.49;94899.72;2617651;54;20289;-75
2022/09/24 08:36:09;;;;;;;1.03;1.03;;;;;;;17.99;38.44;94900.16;2618216;54;20260;-76
2022/09/24 08:38:40;;;;;;;1.50;1.43;;;;;;;17.54;37.58;94899.72;2617592;54;20252;-77
2022/09/24 08:41:34;;;;;;;1.00;1.00;;;;;;;18.12;38.18;94898.81;2618714;54;20152;-76
2022/09/24 08:44:07;;;;;;;1.37;1.27;;;;;;;18.39;37.67;94908.34;2618439;54;20207;-75
2022/09/24 08:49:25;;;;;;;1.70;1.60;;;;;;;17.40;38.57;94899.59;2618316;39;20598;-75
2022/09/24 08:52:02;;;;;;;2.43;1.57;;;;;;;17.79;38.86;94900.69;2618004;54;20708;-75
2022/09/24 08:54:36;;;;;;;1.80;1.70;;;;;;;18.07;36.97;94892.34;2618220;54;20164;-76
2022/09/24 08:57:13;;;;;;;1.17;1.13;;;;;;;18.22;37.26;94896.03;2617483;47;20161;-76
2022/09/24 08:59:45;;;;;;;1.40;1.40;;;;;;;18.48;37.15;94881.84;2617815;54;20169;-76
2022/09/24 09:02:27;;;;;;;0.80;0.80;;;;;;;18.48;36.39;94881.84;2617442;54;20157;-76
2022/09/24 09:05:04;;;;;;;9.10;2.27;;;;;;;17.25;37.83;94875.09;2617318;54;20152;-76
2022/09/24 09:07:39;;;;;;;1.43;1.37;;;;;;;17.59;36.97;94863.28;2617675;47;20256;-76
2022/09/24 09:10:16;;;;;;;1.20;1.20;;;;;;;18.16;36.34;94861.59;2617765;54;20224;-75
2022/09/24 09:12:47;;;;;;;1.70;1.60;;;;;;;16.93;39.10;94870.47;2618202;54;20151;-77
2022/09/24 09:15:20;;;;;;;1.37;1.27;;;;;;;17.84;38.83;94875.69;2618192;47;20281;-76
2022/09/24 09:17:51;;;;;;;1.13;1.13;;;;;;;18.37;37.75;94883.22;2618157;47;20149;-75
2022/09/24 09:20:23;;;;;;;2.03;1.57;;;;;;;17.86;37.34;94873.56;2618224;39;20254;-76
2022/09/24 09:22:54;;;;;;;1.80;1.70;;;;;;;18.23;36.48;94880.25;2617723;54;20177;-77
2022/09/24 09:25:28;;;;;;;0.87;0.87;;;;;;;18.46;36.28;94870.38;2618116;54;20144;-77
2022/09/24 09:28:03;;;;;;;0.93;0.93;;;;;;;19.10;35.36;94863.53;2618059;54;20149;-75
2022/09/24 09:30:42;;;;;;;1.73;1.63;;;;;;;19.00;35.55;94854.13;2617563;47;20145;-76
2022/09/24 09:33:24;;;;;;;1.80;1.33;;;;;;;18.57;36.38;94853.22;2618393;47;20149;-76
2022/09/24 09:36:03;;;;;;;1.33;1.25;;;;;;;19.10;35.74;94860.66;2618363;54;20655;-76
2022/09/24 09:38:39;;;;;;;1.70;1.58;;;;;;;19.26;33.87;94862.84;2618149;47;20168;-77
2022/09/24 09:41:19;;;;;;;1.23;1.20;;;;;;;19.41;35.35;94854.97;2618871;54;20198;-76
2022/09/24 09:43:48;;;;;;;1.10;1.10;;;;;;;19.63;35.68;94849.28;2618121;54;20172;-76
2022/09/24 09:46:23;;;;;;;1.50;1.50;;;;;;;18.79;35.41;94839.00;2618041;47;20289;-76
2022/09/24 09:48:55;;;;;;;1.10;1.10;;;;;;;18.23;37.87;94837.25;2618178;54;20252;-76
2022/09/24 09:51:27;;;;;;;1.20;1.10;;;;;;;19.00;35.40;94843.38;2618108;54;20271;-77
2022/09/24 09:53:57;;;;;;;0.87;0.87;;;;;;;19.49;36.04;94847.13;2617950;48;20268;-76
2022/09/24 09:56:31;;;;;;;0.93;0.93;;;;;;;19.71;34.91;94832.03;2618157;54;20681;-77
2022/09/24 09:59:06;;;;;;;1.40;1.40;;;;;;;19.59;33.36;94819.81;2617889;50;20332;-77
2022/09/24 10:01:38;;;;;;;1.33;1.33;;;;;;;19.10;34.42;94825.47;2617039;48;20288;-76
2022/09/24 10:04:07;;;;;;;1.35;1.17;;;;;;;19.48;33.49;94810.47;2615627;54;20153;-79
2022/09/24 10:06:37;;;;;;;0.77;0.77;;;;;;;19.30;35.75;94798.94;2615525;47;20172;-76
2022/09/24 10:09:15;;;;;;;1.40;1.30;;;;;;;19.51;34.79;94811.94;2615691;54;20779;-76
2022/09/24 10:11:47;;;;;;;1.65;1.17;;;;;;;19.97;34.70;94810.47;2615847;47;20156;-76
2022/09/24 10:14:20;;;;;;;1.17;1.17;;;;;;;20.20;33.97;94821.25;2615233;47;20707;-77
2022/09/24 10:16:53;;;;;;;1.95;1.85;;;;;;;19.11;33.70;94809.69;2615988;47;20176;-77
2022/09/24 10:19:25;;;;;;;1.10;1.10;;;;;;;18.96;34.74;94805.34;2616091;47;20295;-77
2022/09/24 10:21:56;;;;;;;2.27;2.07;;;;;;;18.09;35.52;94802.78;2617059;47;20295;-78
2022/09/24 10:24:27;;;;;;;1.73;1.63;;;;;;;18.61;34.56;94793.75;2617606;54;20224;-77
2022/09/24 10:26:59;;;;;;;2.50;1.60;;;;;;;18.84;34.03;94800.31;2616043;54;20245;-78
2022/09/24 10:32:18;;;;;;;1.97;1.70;;;;;;;19.25;34.85;94791.78;2616826;54;20172;-77
2022/09/24 10:34:58;;;;;;;1.20;1.20;;;;;;;18.87;33.15;94789.53;2616236;51;20284;-75
2022/09/24 10:37:26;;;;;;;0.80;0.80;;;;;;;19.13;34.36;94790.31;2615934;54;21143;-77
2022/09/24 10:40:02;;;;;;;1.50;1.00;;;;;;;19.36;31.28;94784.59;2615563;47;20718;-76
2022/09/24 10:42:33;;;;;;;0.80;0.80;;;;;;;19.87;31.35;94802.59;2616129;54;20152;-77
2022/09/24 10:45:03;;;;;;;1.10;1.10;;;;;;;19.92;32.69;94804.03;2615889;54;20256;-77
2022/09/24 10:47:43;;;;;;;0.93;0.93;;;;;;;20.17;30.86;94793.91;2615957;54;20187;-77
2022/09/24 10:50:29;;;;;;;1.05;1.05;;;;;;;19.66;30.49;94778.91;2616386;54;20574;-76
2022/09/24 10:53:02;;;;;;;0.70;0.70;;;;;;;19.86;30.89;94784.63;2616028;47;20228;-76
2022/09/24 10:55:39;;;;;;;0.77;0.77;;;;;;;19.49;28.97;94783.19;2616426;54;20157;-77
2022/09/24 10:58:27;;;;;;;0.45;0.45;;;;;;;19.28;27.86;94787.44;2616230;47;20395;-77
2022/09/24 11:01:06;;;;;;;0.53;0.53;;;;;;;19.24;29.27;94775.97;2615842;54;20292;-77
2022/09/24 11:03:53;;;;;;;0.60;0.60;;;;;;;19.68;28.33;94781.75;2616261;47;20268;-75
2022/09/24 11:06:35;;;;;;;0.70;0.70;;;;;;;19.78;28.74;94793.25;2615927;49;20287;-76
2022/09/24 11:09:19;;;;;;;0.52;0.52;;;;;;;19.27;27.79;94797.53;2615910;54;20165;-77
2022/09/24 11:12:00;;;;;;;0.63;0.63;;;;;;;19.35;30.47;94778.13;2593625;54;20168;-77
2022/09/24 11:14:56;;;;;;;0.20;0.20;;;;;;;19.12;29.78;94786.03;2615842;47;20168;-77
2022/09/24 11:17:35;;;;;;;0.93;0.93;;;;;;;19.19;30.02;94772.38;2616060;54;20307;-75
2022/09/24 11:20:28;;;;;;;0.30;0.30;;;;;;;19.13;30.18;94767.34;2616066;54;20270;-77
2022/09/24 11:23:29;;;;;;;0.50;0.50;;;;;;;19.18;30.11;94774.53;2615930;46;20227;-76
2022/09/24 11:26:10;;;;;;;0.23;0.23;;;;;;;19.14;29.26;94759.44;2615520;54;20311;-77
2022/09/24 11:28:55;;;;;;;0.50;0.50;;;;;;;19.27;28.87;94763.06;2615558;47;20157;-76
2022/09/24 11:31:36;;;;;;;0.30;0.30;;;;;;;19.31;28.83;94763.78;2615429;47;20307;-76
2022/09/24 11:34:19;;;;;;;0.43;0.43;;;;;;;19.27;29.53;94754.47;2615359;54;20161;-76
2022/09/24 11:37:08;;;;;;;0.75;0.75;;;;;;;19.06;29.25;94740.06;2615354;54;20165;-76
2022/09/24 11:39:53;;;;;;;0.60;0.60;;;;;;;19.28;28.88;94747.25;2615332;47;20383;-76
2022/09/24 11:42:28;;;;;;;1.13;0.63;;;;;;;19.38;28.82;94738.66;2615548;47;20173;-76
2022/09/24 11:45:20;;;;;;;0.80;0.80;;;;;;;19.35;28.72;94728.59;2616455;31;20751;-76
2022/09/24 11:48:09;;;;;;;0.30;0.30;;;;;;;19.37;28.62;94737.94;2615409;54;20157;-76
2022/09/24 11:50:48;;;;;;;0.60;0.60;;;;;;;19.09;29.85;94709.22;2615210;46;20181;-76
2022/09/24 11:53:26;;;;;;;0.70;0.70;;;;;;;19.61;28.32;94745.84;2615529;54;20149;-77
2022/09/24 11:56:00;;;;;;;0.53;0.50;;;;;;;19.68;28.54;94741.53;2615189;54;20165;-76
2022/09/24 11:58:33;;;;;;;1.23;1.23;;;;;;;19.45;27.79;94740.09;2615482;54;20299;-77
2022/09/24 12:01:13;;;;;;;0.80;0.80;;;;;;;19.64;28.88;94732.22;2614859;47;20164;-77
2022/09/24 12:03:51;;;;;;;0.50;0.50;;;;;;;19.80;28.92;94724.28;2614505;54;20168;-77
2022/09/24 12:06:24;;;;;;;0.50;0.50;;;;;;;19.74;27.21;94721.41;2615301;54;20183;-76
2022/09/24 12:08:57;;;;;;;0.88;0.88;;;;;;;19.65;27.97;94727.91;2615431;54;20161;-77
2022/09/24 12:11:32;;;;;;;0.43;0.43;;;;;;;19.43;29.16;94723.56;2615465;47;20171;-77
2022/09/24 12:14:06;;;;;;;0.50;0.50;;;;;;;19.42;28.75;94724.28;2613588;54;20267;-77
2022/09/24 12:16:39;;;;;;;0.50;0.50;;;;;;;19.63;28.26;94734.38;2614986;54;20170;-76
2022/09/24 12:19:19;;;;;;;0.60;0.60;;;;;;;19.65;27.86;94719.28;2615299;47;20165;-76
2022/09/24 12:21:50;;;;;;;0.37;0.37;;;;;;;19.70;27.99;94727.16;2614990;46;20300;-76
2022/09/24 12:24:23;;;;;;;0.65;0.65;;;;;;;19.86;28.58;94732.16;2615240;47;20183;-77
2022/09/24 12:26:56;;;;;;;0.80;0.80;;;;;;;19.87;27.69;94714.19;2614839;47;20747;-76
2022/09/24 12:35:20;;;;;;;0.50;0.50;;;;;;;20.03;27.30;94722.06;2615090;54;20153;-77
2022/09/24 12:37:55;;;;;;;0.32;0.32;;;;;;;20.07;28.65;94724.94;2614791;47;20164;-77
2022/09/24 12:40:48;;;;;;;0.45;0.45;;;;;;;20.10;27.70;94720.59;2613739;54;20180;-77